Time,TemperatureF,DewpointF,PressureIn,WindDirection,WindDirectionDegrees,WindSpeedMPH,WindSpeedGustMPH,Humidity,HourlyPrecipIn,Conditions,Clouds,dailyrainin,SoftwareType,DateUTC
2013-05-20 00:00:00,59.0,58.0,29.98,SE,129,0.0,0.0,96,0.01,,,0.31,weatherlink.com 1.10,2013-05-20 04:00:00,
2013-05-20 00:15:00,59.0,58.0,29.99,SE,129,0.0,0.0,96,0.01,,,0.00,weatherlink.com 1.10,2013-05-20 04:15:00,
2013-05-20 00:30:00,58.7,58.0,29.99,SE,129,0.0,0.0,96,0.00,,,0.00,weatherlink.com 1.10,2013-05-20 04:30:00,
2013-05-20 00:45:00,58.3,57.0,30.00,SE,129,0.0,0.0,96,0.00,,,0.00,weatherlink.com 1.10,2013-05-20 04:45:00,
2013-05-20 01:00:00,58.0,57.0,30.00,SE,129,0.0,0.0,96,0.00,,,0.00,weatherlink.com 1.10,2013-05-20 05:00:00,
2013-05-20 01:15:00,57.7,57.0,30.00,SE,129,0.0,0.0,96,0.00,,,0.00,weatherlink.com 1.10,2013-05-20 05:15:00,
2013-05-20 01:30:00,57.5,56.0,30.00,SE,129,0.0,0.0,96,0.00,,,0.00,weatherlink.com 1.10,2013-05-20 05:30:00,
2013-05-20 01:45:00,57.3,56.0,29.99,SE,129,0.0,0.0,96,0.00,,,0.00,weatherlink.com 1.10,2013-05-20 05:45:00,
2013-05-20 02:00:00,57.0,56.0,29.99,SE,129,0.0,0.0,96,0.00,,,0.00,weatherlink.com 1.10,2013-05-20 06:00:00,
2013-05-20 02:15:00,56.9,56.0,29.99,SE,129,0.0,0.0,96,0.00,,,0.00,weatherlink.com 1.10,2013-05-20 06:15:00,
2013-05-20 02:30:00,56.7,56.0,30.00,SE,129,0.0,0.0,96,0.00,,,0.00,weatherlink.com 1.10,2013-05-20 06:30:00,
2013-05-20 02:45:00,57.0,56.0,29.98,SE,129,0.0,0.0,96,0.00,,,0.00,weatherlink.com 1.10,2013-05-20 06:45:00,
2013-05-20 03:00:00,57.1,56.0,29.99,SE,129,0.0,0.0,96,0.00,,,0.00,weatherlink.com 1.10,2013-05-20 07:00:00,
2013-05-20 03:15:00,57.0,56.0,29.99,SE,129,0.0,0.0,96,0.00,,,0.00,weatherlink.com 1.10,2013-05-20 07:15:00,
2013-05-20 03:30:00,57.1,56.0,29.99,SE,129,0.0,0.0,96,0.00,,,0.00,weatherlink.com 1.10,2013-05-20 07:30:00,
2013-05-20 03:45:00,57.2,56.0,29.99,SE,129,0.0,0.0,96,0.00,,,0.00,weatherlink.com 1.10,2013-05-20 07:45:00,
2013-05-20 04:00:00,57.4,57.0,29.99,SE,129,0.0,0.0,97,0.00,,,0.00,weatherlink.com 1.10,2013-05-20 08:00:00,
2013-05-20 04:15:00,57.4,57.0,29.99,SE,129,0.0,0.0,97,0.00,,,0.00,weatherlink.com 1.10,2013-05-20 08:15:00,
2013-05-20 04:30:00,57.2,56.0,29.99,SE,129,0.0,0.0,97,0.00,,,0.00,weatherlink.com 1.10,2013-05-20 08:30:00,
2013-05-20 04:45:00,56.8,56.0,29.99,SE,129,0.0,0.0,97,0.00,,,0.00,weatherlink.com 1.10,2013-05-20 08:45:00,
2013-05-20 05:00:00,56.5,55.0,30.00,SE,129,0.0,0.0,96,0.00,,,0.00,weatherlink.com 1.10,2013-05-20 09:00:00,
2013-05-20 05:15:00,56.5,56.0,29.99,SE,129,0.0,0.0,97,0.00,,,0.00,weatherlink.com 1.10,2013-05-20 09:15:00,
2013-05-20 05:45:00,56.8,56.0,30.00,SE,129,0.0,0.0,97,0.00,,,0.00,weatherlink.com 1.10,2013-05-20 09:45:00,
2013-05-20 06:00:00,57.0,56.0,30.00,SE,129,0.0,0.0,97,0.00,,,0.00,weatherlink.com 1.10,2013-05-20 10:00:00,
2013-05-20 06:15:00,57.2,56.0,29.66,SE,129,0.0,0.0,97,0.00,,,0.00,weatherlink.com 1.10,2013-05-20 10:15:00,
2013-05-20 06:30:00,57.4,57.0,30.01,SE,129,0.0,0.0,97,0.00,,,0.00,weatherlink.com 1.10,2013-05-20 10:30:00,
2013-05-20 06:45:00,57.7,57.0,30.02,SE,129,0.0,0.0,97,0.00,,,0.00,weatherlink.com 1.10,2013-05-20 10:45:00,
2013-05-20 07:00:00,57.9,57.0,30.03,SE,127,0.0,1.0,97,0.00,,,0.00,weatherlink.com 1.10,2013-05-20 11:00:00,
2013-05-20 07:15:00,57.8,57.0,30.03,SE,127,0.0,1.0,97,0.00,,,0.00,weatherlink.com 1.10,2013-05-20 11:15:00,
2013-05-20 07:30:00,57.8,57.0,30.03,SE,127,0.0,0.0,97,0.00,,,0.00,weatherlink.com 1.10,2013-05-20 11:30:00,
2013-05-20 07:45:00,58.2,57.0,29.33,SE,127,0.0,0.0,97,0.00,,,0.00,weatherlink.com 1.10,2013-05-20 11:45:00,
2013-05-20 08:00:00,58.4,58.0,28.27,NNW,334,0.0,0.0,97,0.00,,,0.00,weatherlink.com 1.10,2013-05-20 12:00:00,
2013-05-20 08:15:00,59.0,58.0,29.00,NNW,334,0.0,0.0,97,0.00,,,0.00,weatherlink.com 1.10,2013-05-20 12:15:00,
2013-05-20 08:30:00,59.0,58.0,28.29,NNW,336,0.0,0.0,97,0.00,,,0.00,weatherlink.com 1.10,2013-05-20 12:30:00,
2013-05-20 08:45:00,59.5,59.0,29.35,NNW,336,0.0,1.0,97,0.00,,,0.00,weatherlink.com 1.10,2013-05-20 12:45:00,
2013-05-20 09:00:00,60.2,59.0,29.71,NW,326,0.0,0.0,97,0.00,,,0.00,weatherlink.com 1.10,2013-05-20 13:00:00,
2013-05-20 09:15:00,61.1,60.0,30.07,NNW,336,0.0,2.0,97,0.00,,,0.00,weatherlink.com 1.10,2013-05-20 13:15:00,
2013-05-20 09:30:00,61.8,61.0,30.07,SW,236,0.0,2.0,97,0.00,,,0.00,weatherlink.com 1.10,2013-05-20 13:30:00,
2013-05-20 09:45:00,62.8,62.0,29.36,SW,220,0.0,2.0,97,0.00,,,0.00,weatherlink.com 1.10,2013-05-20 13:45:00,
2013-05-20 10:00:00,63.5,63.0,28.65,SSE,148,2.0,4.0,97,0.00,,,0.00,weatherlink.com 1.10,2013-05-20 14:00:00,
2013-05-20 10:15:00,65.3,65.0,30.06,WNW,284,0.0,2.0,97,0.00,,,0.00,weatherlink.com 1.10,2013-05-20 14:15:00,
2013-05-20 10:31:00,67.5,65.0,29.29,SE,144,0.0,4.0,91,0.00,,,0.00,weatherlink.com 1.10,2013-05-20 14:31:00,
2013-05-20 10:46:00,69.5,65.0,30.06,SE,131,2.0,5.0,85,0.00,,,0.00,weatherlink.com 1.10,2013-05-20 14:46:00,
2013-05-20 11:01:00,71.0,66.0,30.07,SE,128,0.0,3.0,85,0.00,,,0.00,weatherlink.com 1.10,2013-05-20 15:01:00,
2013-05-20 11:16:00,71.7,66.0,28.65,SE,128,0.0,3.0,81,0.00,,,0.00,weatherlink.com 1.10,2013-05-20 15:16:00,
2013-05-20 11:31:00,71.9,67.0,30.06,SE,128,0.0,1.0,85,0.00,,,0.00,weatherlink.com 1.10,2013-05-20 15:31:00,
2013-05-20 11:46:00,72.9,68.0,28.57,NNW,338,0.0,4.0,85,0.00,,,0.00,weatherlink.com 1.10,2013-05-20 15:46:00,
2013-05-20 12:01:00,74.0,68.0,29.23,SE,130,0.0,2.0,80,0.00,,,0.00,weatherlink.com 1.10,2013-05-20 16:01:00,
2013-05-20 12:16:00,75.4,69.0,30.05,SSE,152,0.0,3.0,79,0.00,,,0.00,weatherlink.com 1.10,2013-05-20 16:16:00,
2013-05-20 12:31:00,74.3,69.0,29.99,SSE,153,0.0,0.0,82,0.00,,,0.00,weatherlink.com 1.10,2013-05-20 16:31:00,
2013-05-20 12:46:00,75.7,70.0,30.04,SSE,152,1.0,1.0,82,0.00,,,0.00,weatherlink.com 1.10,2013-05-20 16:46:00,
2013-05-20 13:01:00,77.9,70.0,30.04,SSE,161,0.0,3.0,77,0.00,,,0.00,weatherlink.com 1.10,2013-05-20 17:01:00,
2013-05-20 13:16:00,78.7,70.0,30.03,SE,145,0.0,4.0,74,0.00,,,0.00,weatherlink.com 1.10,2013-05-20 17:16:00,
2013-05-20 13:31:00,78.9,70.0,30.03,SE,145,0.0,2.0,75,0.00,,,0.00,weatherlink.com 1.10,2013-05-20 17:31:00,
2013-05-20 13:46:00,79.8,70.0,30.03,SE,143,1.0,4.0,71,0.00,,,0.00,weatherlink.com 1.10,2013-05-20 17:46:00,
2013-05-20 14:01:00,80.3,71.0,29.91,SSE,160,2.0,4.0,73,0.00,,,0.00,weatherlink.com 1.10,2013-05-20 18:01:00,
2013-05-20 14:16:00,80.3,71.0,30.02,SE,138,3.0,7.0,72,0.00,,,0.00,weatherlink.com 1.10,2013-05-20 18:16:00,
2013-05-20 14:31:00,80.4,70.0,30.01,East,96,3.0,8.0,71,0.00,,,0.00,weatherlink.com 1.10,2013-05-20 18:31:00,
2013-05-20 14:46:00,81.3,71.0,29.62,SE,137,0.0,7.0,71,0.00,,,0.00,weatherlink.com 1.10,2013-05-20 18:46:00,
2013-05-20 15:01:00,82.2,71.0,29.67,SE,126,1.0,4.0,68,0.00,,,0.00,weatherlink.com 1.10,2013-05-20 19:01:00,
2013-05-20 15:16:00,82.8,70.0,29.32,SE,128,5.0,5.0,66,0.00,,,0.00,weatherlink.com 1.10,2013-05-20 19:16:00,
2013-05-20 15:31:00,83.1,71.0,29.32,SE,138,0.0,4.0,67,0.00,,,0.00,weatherlink.com 1.10,2013-05-20 19:31:00,
2013-05-20 15:46:00,83.1,70.0,29.32,ESE,117,0.0,3.0,65,0.00,,,0.00,weatherlink.com 1.10,2013-05-20 19:46:00,
2013-05-20 16:01:00,83.2,71.0,28.22,SE,129,1.0,3.0,66,0.00,,,0.00,weatherlink.com 1.10,2013-05-20 20:01:00,
2013-05-20 16:16:00,83.5,71.0,28.22,SSE,147,2.0,5.0,65,0.00,,,0.00,weatherlink.com 1.10,2013-05-20 20:16:00,
2013-05-20 16:31:00,83.2,70.0,28.22,SW,221,0.0,5.0,65,0.00,,,0.00,weatherlink.com 1.10,2013-05-20 20:31:00,
2013-05-20 16:46:00,83.3,70.0,28.22,SE,134,0.0,5.0,64,0.00,,,0.00,weatherlink.com 1.10,2013-05-20 20:46:00,
2013-05-20 17:01:00,83.5,71.0,28.22,SSE,155,1.0,4.0,65,0.00,,,0.00,weatherlink.com 1.10,2013-05-20 21:01:00,
2013-05-20 17:16:00,82.9,70.0,28.22,SSE,148,0.0,4.0,66,0.00,,,0.00,weatherlink.com 1.10,2013-05-20 21:16:00,
2013-05-20 17:32:00,82.7,71.0,28.22,SE,134,1.0,3.0,67,0.00,,,0.00,weatherlink.com 1.10,2013-05-20 21:32:00,
2013-05-20 17:46:00,82.8,70.0,28.22,SSE,151,1.0,4.0,66,0.00,,,0.00,weatherlink.com 1.10,2013-05-20 21:46:00,
2013-05-20 18:01:00,83.1,71.0,28.22,East,94,1.0,6.0,66,0.00,,,0.00,weatherlink.com 1.10,2013-05-20 22:01:00,
2013-05-20 18:16:00,83.2,71.0,28.22,SE,138,1.0,4.0,66,0.00,,,0.00,weatherlink.com 1.10,2013-05-20 22:16:00,
2013-05-20 18:32:00,83.0,70.0,27.63,SE,146,0.0,6.0,66,0.00,,,0.00,weatherlink.com 1.10,2013-05-20 22:32:00,
2013-05-20 18:47:00,82.7,71.0,27.63,SE,141,0.0,5.0,67,0.00,,,0.00,weatherlink.com 1.10,2013-05-20 22:47:00,
2013-05-20 19:02:00,82.4,71.0,27.63,SSE,148,1.0,5.0,68,0.00,,,0.00,weatherlink.com 1.10,2013-05-20 23:02:00,
2013-05-20 19:17:00,82.0,70.0,27.63,SSE,147,0.0,3.0,68,0.00,,,0.00,weatherlink.com 1.10,2013-05-20 23:17:00,
2013-05-20 19:32:00,81.6,71.0,27.63,SSE,163,1.0,5.0,69,0.00,,,0.00,weatherlink.com 1.10,2013-05-20 23:32:00,
2013-05-20 19:47:00,81.1,70.0,28.48,SSE,163,0.0,2.0,69,0.00,,,0.00,weatherlink.com 1.10,2013-05-20 23:47:00,
2013-05-20 20:02:00,80.3,70.0,29.93,SSE,161,0.0,2.0,70,0.00,,,0.00,weatherlink.com 1.10,2013-05-21 00:02:00,
2013-05-20 20:17:00,79.5,69.0,29.93,SSE,161,0.0,1.0,71,0.00,,,0.00,weatherlink.com 1.10,2013-05-21 00:17:00,
2013-05-20 20:32:00,78.6,69.0,29.55,NW,318,0.0,1.0,73,0.00,,,0.00,weatherlink.com 1.10,2013-05-21 00:32:00,
2013-05-20 20:47:00,77.5,70.0,29.93,SW,217,0.0,1.0,77,0.00,,,0.00,weatherlink.com 1.10,2013-05-21 00:47:00,
2013-05-20 21:02:00,75.8,69.0,29.93,SW,217,0.0,0.0,80,0.00,,,0.00,weatherlink.com 1.10,2013-05-21 01:02:00,
2013-05-20 21:17:00,74.1,69.0,29.93,SW,217,0.0,0.0,83,0.00,,,0.00,weatherlink.com 1.10,2013-05-21 01:17:00,
2013-05-20 21:32:00,72.5,68.0,29.93,SW,217,0.0,0.0,86,0.00,,,0.00,weatherlink.com 1.10,2013-05-21 01:32:00,
2013-05-20 21:47:00,71.3,68.0,29.93,SW,217,0.0,0.0,88,0.00,,,0.00,weatherlink.com 1.10,2013-05-21 01:47:00,
2013-05-20 22:32:00,68.8,66.0,29.93,SW,217,0.0,0.0,92,0.00,,,0.00,weatherlink.com 1.10,2013-05-21 02:32:00,
2013-05-20 22:47:00,68.3,66.0,29.94,SW,217,0.0,0.0,93,0.00,,,0.00,weatherlink.com 1.10,2013-05-21 02:47:00,
2013-05-20 23:02:00,67.8,66.0,29.94,SW,217,0.0,0.0,93,0.00,,,0.00,weatherlink.com 1.10,2013-05-21 03:02:00,
2013-05-20 23:17:00,67.3,66.0,29.94,SW,217,0.0,0.0,94,0.00,,,0.00,weatherlink.com 1.10,2013-05-21 03:17:00,
2013-05-20 23:32:00,66.9,65.0,29.94,SW,217,0.0,0.0,94,0.00,,,0.00,weatherlink.com 1.10,2013-05-21 03:32:00,
2013-05-20 23:47:00,66.5,65.0,29.94,SW,217,0.0,0.0,94,0.00,,,0.00,weatherlink.com 1.10,2013-05-21 03:47:00,